FR2KZ EGCC-EKCH
Flight info
| Callsign | FR2KZ |
|---|---|
| Flight time | 1h 37m |
| Altitude | 23000 |
| Route | POL P17 NUKPE/N0422F250 P17 MEJAC/N0455F370 DCT SURAT DCT PETIL DCT TESPI |
| Aircraft | B738/M-SDE2E3FGHIRWXY/LB1 |
Departure
| Time | 2026-04-24 12:20 |
|---|---|
| Airport | Manchester Airport (EGCC) |
Arrival
| Time | 2026-04-24 13:57 |
|---|---|
| Airport | Copenhagen Kastrup Airport (EKCH) |
| Time | Latitude | Longitude | Altitude | Speed | Heading |
|---|---|---|---|---|---|
| 2026-04-24 11:44 | 53.35975 | -2.26974 | 240 ft | 0 kts | 290° |
| 2026-04-24 12:07 | 53.35968 | -2.26942 | 240 ft | 4 kts | 290° |
| 2026-04-24 12:08 | 53.35965 | -2.26928 | 241 ft | 4 kts | 219° |
| 2026-04-24 12:08 | 53.35975 | -2.26919 | 238 ft | 4 kts | 212° |
| 2026-04-24 12:08 | 53.35995 | -2.26895 | 237 ft | 4 kts | 219° |
| 2026-04-24 12:08 | 53.36009 | -2.26876 | 237 ft | 0 kts | 219° |
| 2026-04-24 12:13 | 53.36008 | -2.26877 | 237 ft | 2 kts | 218° |
| 2026-04-24 12:13 | 53.35977 | -2.26884 | 236 ft | 5 kts | 167° |
| 2026-04-24 12:13 | 53.35969 | -2.26877 | 234 ft | 0 kts | 149° |
| 2026-04-24 12:14 | 53.35938 | -2.26826 | 234 ft | 13 kts | 121° |
| 2026-04-24 12:15 | 53.35988 | -2.26640 | 231 ft | 25 kts | 50° |
| 2026-04-24 12:15 | 53.36117 | -2.26367 | 227 ft | 32 kts | 52° |
| 2026-04-24 12:15 | 53.36200 | -2.26240 | 225 ft | 6 kts | 41° |
| 2026-04-24 12:15 | 53.36233 | -2.26185 | 224 ft | 0 kts | 48° |
| 2026-04-24 12:16 | 53.36239 | -2.26172 | 224 ft | 7 kts | 49° |
| 2026-04-24 12:16 | 53.36265 | -2.26066 | 222 ft | 9 kts | 88° |
| 2026-04-24 12:16 | 53.36273 | -2.25956 | 221 ft | 10 kts | 71° |
| 2026-04-24 12:16 | 53.36286 | -2.25842 | 220 ft | 10 kts | 107° |
| 2026-04-24 12:17 | 53.36246 | -2.25779 | 222 ft | 0 kts | 154° |
| 2026-04-24 12:18 | 53.36222 | -2.25771 | 221 ft | 13 kts | 184° |
| 2026-04-24 12:19 | 53.36091 | -2.26008 | 222 ft | 55 kts | 231° |
| 2026-04-24 12:19 | 53.35716 | -2.26788 | 238 ft | 115 kts | 231° |
| 2026-04-24 12:19 | 53.35109 | -2.28034 | 301 ft | 157 kts | 230° |
| 2026-04-24 12:19 | 53.34645 | -2.28982 | 577 ft | 160 kts | 230° |
| 2026-04-24 12:20 | 53.33921 | -2.30493 | 970 ft | 173 kts | 231° |
| 2026-04-24 12:20 | 53.33190 | -2.32138 | 1475 ft | 176 kts | 232° |
| 2026-04-24 12:20 | 53.32502 | -2.33877 | 1939 ft | 185 kts | 244° |
| 2026-04-24 12:20 | 53.32132 | -2.36046 | 2174 ft | 208 kts | 266° |
| 2026-04-24 12:21 | 53.32343 | -2.38530 | 2396 ft | 228 kts | 293° |
| 2026-04-24 12:21 | 53.33336 | -2.40692 | 2770 ft | 243 kts | 327° |
| 2026-04-24 12:21 | 53.34962 | -2.41661 | 3202 ft | 255 kts | 352° |
| 2026-04-24 12:21 | 53.36738 | -2.42239 | 3869 ft | 262 kts | 347° |
| 2026-04-24 12:22 | 53.38514 | -2.43058 | 4541 ft | 268 kts | 344° |
| 2026-04-24 12:22 | 53.40294 | -2.43960 | 4986 ft | 270 kts | 344° |
| 2026-04-24 12:22 | 53.42088 | -2.44895 | 4968 ft | 270 kts | 343° |
| 2026-04-24 12:22 | 53.43890 | -2.45845 | 4971 ft | 273 kts | 343° |
| 2026-04-24 12:23 | 53.45735 | -2.46595 | 5312 ft | 273 kts | 358° |
| 2026-04-24 12:23 | 53.47549 | -2.45933 | 5352 ft | 268 kts | 29° |
| 2026-04-24 12:23 | 53.49092 | -2.44187 | 5352 ft | 268 kts | 39° |
| 2026-04-24 12:23 | 53.50528 | -2.42239 | 5339 ft | 269 kts | 40° |
| 2026-04-24 12:24 | 53.51984 | -2.40254 | 5333 ft | 268 kts | 40° |
| 2026-04-24 12:24 | 53.53443 | -2.38288 | 5342 ft | 268 kts | 40° |
| 2026-04-24 12:24 | 53.54902 | -2.36327 | 5333 ft | 268 kts | 39° |
| 2026-04-24 12:24 | 53.56357 | -2.34384 | 5345 ft | 267 kts | 39° |
| 2026-04-24 12:25 | 53.57817 | -2.32441 | 5326 ft | 267 kts | 39° |
| 2026-04-24 12:25 | 53.59273 | -2.30503 | 5328 ft | 266 kts | 40° |
| 2026-04-24 12:25 | 53.60727 | -2.28570 | 5334 ft | 266 kts | 39° |
| 2026-04-24 12:25 | 53.62180 | -2.26635 | 5338 ft | 266 kts | 39° |
| 2026-04-24 12:26 | 53.63635 | -2.24695 | 5345 ft | 267 kts | 39° |
| 2026-04-24 12:26 | 53.65099 | -2.22749 | 5342 ft | 269 kts | 39° |
| 2026-04-24 12:26 | 53.66571 | -2.20784 | 5340 ft | 269 kts | 39° |
| 2026-04-24 12:26 | 53.68042 | -2.18819 | 5338 ft | 270 kts | 39° |
| 2026-04-24 12:27 | 53.69514 | -2.16853 | 5338 ft | 270 kts | 40° |
| 2026-04-24 12:27 | 53.70986 | -2.14885 | 5330 ft | 270 kts | 39° |
| 2026-04-24 12:27 | 53.72454 | -2.12915 | 5348 ft | 269 kts | 39° |
| 2026-04-24 12:27 | 53.73920 | -2.10957 | 5336 ft | 269 kts | 37° |
| 2026-04-24 12:28 | 53.75614 | -2.09630 | 5394 ft | 272 kts | 15° |
| 2026-04-24 12:28 | 53.77458 | -2.08832 | 6061 ft | 274 kts | 15° |
| 2026-04-24 12:28 | 53.79300 | -2.08028 | 6898 ft | 273 kts | 15° |
| 2026-04-24 12:28 | 53.81145 | -2.07215 | 7613 ft | 276 kts | 15° |
| 2026-04-24 12:29 | 53.82986 | -2.06395 | 8333 ft | 279 kts | 15° |
| 2026-04-24 12:29 | 53.84870 | -2.05550 | 9105 ft | 281 kts | 15° |
| 2026-04-24 12:29 | 53.86777 | -2.04690 | 9868 ft | 285 kts | 14° |
| 2026-04-24 12:29 | 53.88703 | -2.03818 | 10600 ft | 289 kts | 14° |
| 2026-04-24 12:30 | 53.90719 | -2.02905 | 10857 ft | 312 kts | 14° |
| 2026-04-24 12:30 | 53.92894 | -2.01916 | 11021 ft | 335 kts | 14° |
| 2026-04-24 12:30 | 53.95213 | -2.00859 | 11237 ft | 355 kts | 14° |
| 2026-04-24 12:30 | 53.97633 | -1.99754 | 11723 ft | 364 kts | 14° |
| 2026-04-24 12:31 | 54.00095 | -1.98629 | 12379 ft | 368 kts | 14° |
| 2026-04-24 12:31 | 54.02578 | -1.97492 | 13099 ft | 371 kts | 15° |
| 2026-04-24 12:31 | 54.05084 | -1.96340 | 13802 ft | 375 kts | 15° |
| 2026-04-24 12:31 | 54.07621 | -1.95170 | 14472 ft | 379 kts | 14° |
| 2026-04-24 12:32 | 54.10180 | -1.93999 | 15139 ft | 383 kts | 14° |
| 2026-04-24 12:32 | 54.12765 | -1.92832 | 15828 ft | 386 kts | 14° |
| 2026-04-24 12:32 | 54.15371 | -1.91656 | 16504 ft | 390 kts | 14° |
| 2026-04-24 12:32 | 54.18005 | -1.90463 | 17174 ft | 393 kts | 14° |
| 2026-04-24 12:33 | 54.20665 | -1.89230 | 17825 ft | 397 kts | 14° |
| 2026-04-24 12:33 | 54.23338 | -1.87974 | 18475 ft | 401 kts | 15° |
| 2026-04-24 12:33 | 54.26050 | -1.86698 | 19029 ft | 406 kts | 14° |
| 2026-04-24 12:33 | 54.28789 | -1.85410 | 19560 ft | 410 kts | 15° |
| 2026-04-24 12:34 | 54.31511 | -1.83895 | 20119 ft | 414 kts | 25° |
| 2026-04-24 12:34 | 54.33915 | -1.81164 | 20663 ft | 418 kts | 42° |
| 2026-04-24 12:34 | 54.35768 | -1.77322 | 21234 ft | 421 kts | 58° |
| 2026-04-24 12:34 | 54.37227 | -1.72936 | 21714 ft | 426 kts | 61° |
| 2026-04-24 12:35 | 54.38663 | -1.68452 | 22245 ft | 429 kts | 61° |
| 2026-04-24 12:35 | 54.40096 | -1.63944 | 22757 ft | 432 kts | 61° |
| 2026-04-24 12:35 | 54.41546 | -1.59398 | 23276 ft | 435 kts | 61° |
| 2026-04-24 12:35 | 54.43016 | -1.54817 | 23666 ft | 441 kts | 60° |
| 2026-04-24 12:36 | 54.44510 | -1.50186 | 24073 ft | 445 kts | 60° |
| 2026-04-24 12:36 | 54.46023 | -1.45518 | 24518 ft | 447 kts | 60° |
| 2026-04-24 12:36 | 54.47535 | -1.40856 | 24991 ft | 447 kts | 60° |
| 2026-04-24 12:36 | 54.49054 | -1.36170 | 25423 ft | 449 kts | 60° |
| 2026-04-24 12:37 | 54.50575 | -1.31474 | 25883 ft | 449 kts | 61° |
| 2026-04-24 12:37 | 54.52095 | -1.26773 | 26318 ft | 451 kts | 61° |
| 2026-04-24 12:37 | 54.53620 | -1.22046 | 26681 ft | 453 kts | 61° |
| 2026-04-24 12:37 | 54.55153 | -1.17286 | 27030 ft | 456 kts | 61° |
| 2026-04-24 12:38 | 54.56693 | -1.12492 | 27392 ft | 458 kts | 61° |
| 2026-04-24 12:38 | 54.58237 | -1.07678 | 27753 ft | 460 kts | 61° |
| 2026-04-24 12:38 | 54.59786 | -1.02837 | 28035 ft | 464 kts | 62° |
| 2026-04-24 12:39 | 54.64470 | -0.88136 | 28997 ft | 470 kts | 62° |
| 2026-04-24 12:39 | 54.66063 | -0.83114 | 29347 ft | 471 kts | 62° |
| 2026-04-24 12:39 | 54.67637 | -0.78145 | 29716 ft | 472 kts | 62° |
| 2026-04-24 12:40 | 54.69189 | -0.73235 | 30183 ft | 470 kts | 62° |
| 2026-04-24 12:40 | 54.70748 | -0.68293 | 30660 ft | 467 kts | 62° |
| 2026-04-24 12:40 | 54.72299 | -0.63367 | 31080 ft | 465 kts | 62° |
| 2026-04-24 12:40 | 54.73841 | -0.58461 | 31454 ft | 463 kts | 62° |
| 2026-04-24 12:41 | 54.75375 | -0.53564 | 31811 ft | 462 kts | 62° |
| 2026-04-24 12:41 | 54.76885 | -0.48733 | 32573 ft | 451 kts | 61° |
| 2026-04-24 12:41 | 54.78368 | -0.43984 | 33116 ft | 446 kts | 61° |
| 2026-04-24 12:41 | 54.79847 | -0.39240 | 33365 ft | 448 kts | 61° |
| 2026-04-24 12:42 | 54.81332 | -0.34463 | 33592 ft | 450 kts | 61° |
| 2026-04-24 12:42 | 54.82813 | -0.29694 | 33919 ft | 449 kts | 61° |
| 2026-04-24 12:42 | 54.84286 | -0.24937 | 34367 ft | 445 kts | 61° |
| 2026-04-24 12:42 | 54.85745 | -0.20218 | 34716 ft | 443 kts | 61° |
| 2026-04-24 12:43 | 54.87202 | -0.15494 | 34903 ft | 445 kts | 61° |
| 2026-04-24 12:43 | 54.88664 | -0.10744 | 35061 ft | 447 kts | 61° |
| 2026-04-24 12:43 | 54.90131 | -0.05972 | 35295 ft | 447 kts | 61° |
| 2026-04-24 12:43 | 54.91592 | -0.01205 | 35554 ft | 447 kts | 61° |
| 2026-04-24 12:44 | 54.93059 | 0.03587 | 35623 ft | 451 kts | 62° |
| 2026-04-24 12:44 | 54.96020 | 0.13292 | 35965 ft | 454 kts | 62° |
| 2026-04-24 12:44 | 54.97494 | 0.18138 | 36266 ft | 452 kts | 62° |
| 2026-04-24 12:45 | 54.98963 | 0.22976 | 36496 ft | 452 kts | 62° |
| 2026-04-24 12:45 | 55.00431 | 0.27824 | 36675 ft | 453 kts | 62° |
| 2026-04-24 12:45 | 55.01899 | 0.32680 | 36974 ft | 451 kts | 62° |
| 2026-04-24 12:45 | 55.03333 | 0.37432 | 37336 ft | 448 kts | 62° |
| 2026-04-24 12:46 | 55.04786 | 0.42256 | 37359 ft | 451 kts | 62° |
| 2026-04-24 12:46 | 55.07712 | 0.52003 | 37374 ft | 453 kts | 62° |
| 2026-04-24 12:47 | 55.10619 | 0.61730 | 37368 ft | 450 kts | 62° |
| 2026-04-24 12:47 | 55.13501 | 0.71412 | 37378 ft | 448 kts | 62° |
| 2026-04-24 12:48 | 55.16368 | 0.81081 | 37378 ft | 448 kts | 62° |
| 2026-04-24 12:48 | 55.19228 | 0.90767 | 37376 ft | 448 kts | 62° |
| 2026-04-24 12:49 | 55.22087 | 1.00489 | 37376 ft | 449 kts | 63° |
| 2026-04-24 12:49 | 55.24948 | 1.10258 | 37376 ft | 451 kts | 63° |
| 2026-04-24 12:50 | 55.27810 | 1.20075 | 37376 ft | 453 kts | 63° |
| 2026-04-24 12:50 | 55.30660 | 1.29886 | 37373 ft | 455 kts | 63° |
| 2026-04-24 12:51 | 55.33527 | 1.39802 | 37373 ft | 456 kts | 63° |
| 2026-04-24 12:51 | 55.36399 | 1.49777 | 37367 ft | 457 kts | 63° |
| 2026-04-24 12:52 | 55.39272 | 1.59797 | 37367 ft | 458 kts | 63° |
| 2026-04-24 12:52 | 55.42130 | 1.69807 | 37356 ft | 458 kts | 63° |
| 2026-04-24 12:53 | 55.44987 | 1.79858 | 37364 ft | 458 kts | 63° |
| 2026-04-24 12:53 | 55.47831 | 1.89907 | 37367 ft | 458 kts | 63° |
| 2026-04-24 12:54 | 55.50670 | 1.99982 | 37362 ft | 459 kts | 63° |
| 2026-04-24 12:54 | 55.53499 | 2.10062 | 37360 ft | 458 kts | 63° |
| 2026-04-24 12:55 | 55.56305 | 2.20109 | 37358 ft | 458 kts | 63° |
| 2026-04-24 12:55 | 55.59115 | 2.30213 | 37345 ft | 458 kts | 63° |
| 2026-04-24 12:56 | 55.61916 | 2.40327 | 37353 ft | 458 kts | 64° |
| 2026-04-24 12:56 | 55.64715 | 2.50482 | 37347 ft | 459 kts | 64° |
| 2026-04-24 12:57 | 55.67506 | 2.60651 | 37348 ft | 459 kts | 64° |
| 2026-04-24 12:57 | 55.70295 | 2.70857 | 37344 ft | 460 kts | 64° |
| 2026-04-24 12:58 | 55.73077 | 2.81085 | 37343 ft | 461 kts | 64° |
| 2026-04-24 12:58 | 55.75856 | 2.91351 | 37339 ft | 462 kts | 64° |
| 2026-04-24 12:59 | 55.78634 | 3.01649 | 37334 ft | 463 kts | 64° |
| 2026-04-24 12:59 | 55.81412 | 3.12001 | 37337 ft | 465 kts | 64° |
| 2026-04-24 13:00 | 55.84191 | 3.22402 | 37324 ft | 466 kts | 64° |
| 2026-04-24 13:00 | 55.86965 | 3.32834 | 37326 ft | 467 kts | 64° |
| 2026-04-24 13:01 | 55.89734 | 3.43294 | 37314 ft | 467 kts | 64° |
| 2026-04-24 13:01 | 55.91627 | 3.54338 | 37319 ft | 468 kts | 82° |
| 2026-04-24 13:02 | 55.91957 | 3.65856 | 37311 ft | 469 kts | 89° |
| 2026-04-24 13:02 | 55.92110 | 3.77477 | 37309 ft | 469 kts | 88° |
| 2026-04-24 13:03 | 55.92294 | 3.89110 | 37318 ft | 469 kts | 88° |
| 2026-04-24 13:03 | 55.92504 | 4.00749 | 37316 ft | 469 kts | 88° |
| 2026-04-24 13:04 | 55.92677 | 4.10437 | 37304 ft | 470 kts | 88° |
| 2026-04-24 13:04 | 55.92875 | 4.22111 | 37307 ft | 471 kts | 88° |
| 2026-04-24 13:05 | 55.93061 | 4.33807 | 37291 ft | 473 kts | 88° |
| 2026-04-24 13:05 | 55.93235 | 4.45526 | 37291 ft | 473 kts | 89° |
| 2026-04-24 13:06 | 55.93398 | 4.57250 | 37288 ft | 473 kts | 89° |
| 2026-04-24 13:06 | 55.93550 | 4.68996 | 37296 ft | 474 kts | 89° |
| 2026-04-24 13:07 | 55.93692 | 4.80763 | 37283 ft | 474 kts | 89° |
| 2026-04-24 13:07 | 55.93824 | 4.92546 | 37276 ft | 475 kts | 89° |
| 2026-04-24 13:08 | 55.93951 | 5.04330 | 37269 ft | 475 kts | 89° |
| 2026-04-24 13:08 | 55.94113 | 5.16123 | 37267 ft | 475 kts | 88° |
| 2026-04-24 13:09 | 55.94355 | 5.33807 | 37259 ft | 475 kts | 89° |
| 2026-04-24 13:09 | 55.94497 | 5.45590 | 37256 ft | 475 kts | 89° |
| 2026-04-24 13:10 | 55.94625 | 5.57345 | 37257 ft | 474 kts | 89° |
| 2026-04-24 13:10 | 55.94740 | 5.69112 | 37243 ft | 474 kts | 89° |
| 2026-04-24 13:11 | 55.94845 | 5.80889 | 37263 ft | 475 kts | 89° |
| 2026-04-24 13:11 | 55.94939 | 5.92681 | 37254 ft | 476 kts | 89° |
| 2026-04-24 13:12 | 55.95022 | 6.04510 | 37250 ft | 477 kts | 89° |
| 2026-04-24 13:12 | 55.95094 | 6.16369 | 37232 ft | 479 kts | 89° |
| 2026-04-24 13:13 | 55.95128 | 6.22742 | 37243 ft | 479 kts | 89° |
| 2026-04-24 13:14 | 55.95155 | 6.25740 | 37224 ft | 479 kts | 89° |
| 2026-04-24 13:14 | 55.95222 | 6.37648 | 37225 ft | 480 kts | 89° |
| 2026-04-24 13:15 | 55.95245 | 6.49591 | 37233 ft | 481 kts | 90° |
| 2026-04-24 13:15 | 55.95263 | 6.61554 | 37215 ft | 482 kts | 90° |
| 2026-04-24 13:16 | 55.95278 | 6.73536 | 37213 ft | 483 kts | 90° |
| 2026-04-24 13:16 | 55.95284 | 6.85526 | 37203 ft | 483 kts | 90° |
| 2026-04-24 13:17 | 55.95278 | 6.97530 | 37209 ft | 483 kts | 90° |
| 2026-04-24 13:17 | 55.95261 | 7.09532 | 37198 ft | 484 kts | 90° |
| 2026-04-24 13:18 | 55.95231 | 7.21532 | 37199 ft | 484 kts | 90° |
| 2026-04-24 13:18 | 55.95190 | 7.33539 | 37193 ft | 484 kts | 90° |
| 2026-04-24 13:19 | 55.95137 | 7.45535 | 37185 ft | 484 kts | 90° |
| 2026-04-24 13:19 | 55.95073 | 7.57539 | 37188 ft | 484 kts | 90° |
| 2026-04-24 13:20 | 55.94996 | 7.69566 | 37188 ft | 485 kts | 90° |
| 2026-04-24 13:20 | 55.94908 | 7.81606 | 37177 ft | 485 kts | 90° |
| 2026-04-24 13:21 | 55.94809 | 7.93599 | 37178 ft | 486 kts | 90° |
| 2026-04-24 13:21 | 55.94697 | 8.05663 | 37177 ft | 487 kts | 90° |
| 2026-04-24 13:22 | 55.94573 | 8.17755 | 37164 ft | 488 kts | 90° |
| 2026-04-24 13:22 | 55.94436 | 8.29887 | 37161 ft | 490 kts | 90° |
| 2026-04-24 13:23 | 55.94288 | 8.42050 | 37149 ft | 491 kts | 90° |
| 2026-04-24 13:23 | 55.94127 | 8.54236 | 37149 ft | 492 kts | 90° |
| 2026-04-24 13:24 | 55.93953 | 8.66471 | 37136 ft | 493 kts | 90° |
| 2026-04-24 13:24 | 55.93768 | 8.78706 | 37132 ft | 494 kts | 90° |
| 2026-04-24 13:25 | 55.93569 | 8.90972 | 37124 ft | 495 kts | 91° |
| 2026-04-24 13:25 | 55.93358 | 9.03242 | 37129 ft | 495 kts | 91° |
| 2026-04-24 13:26 | 55.93248 | 9.09391 | 36990 ft | 497 kts | 90° |
| 2026-04-24 13:26 | 55.93134 | 9.15592 | 36394 ft | 501 kts | 90° |
| 2026-04-24 13:26 | 55.93017 | 9.21782 | 35816 ft | 499 kts | 90° |
| 2026-04-24 13:26 | 55.92896 | 9.27974 | 35138 ft | 499 kts | 90° |
| 2026-04-24 13:27 | 55.92773 | 9.34158 | 34462 ft | 500 kts | 90° |
| 2026-04-24 13:27 | 55.92646 | 9.40367 | 33683 ft | 501 kts | 90° |
| 2026-04-24 13:27 | 55.92516 | 9.46575 | 32902 ft | 502 kts | 91° |
| 2026-04-24 13:27 | 55.92383 | 9.52805 | 32141 ft | 502 kts | 91° |
| 2026-04-24 13:28 | 55.92246 | 9.59025 | 31377 ft | 502 kts | 91° |
| 2026-04-24 13:28 | 55.92106 | 9.65253 | 30610 ft | 503 kts | 91° |
| 2026-04-24 13:28 | 55.91963 | 9.71494 | 29701 ft | 505 kts | 90° |
| 2026-04-24 13:28 | 55.91817 | 9.77753 | 28792 ft | 505 kts | 90° |
| 2026-04-24 13:29 | 55.91669 | 9.83886 | 28218 ft | 497 kts | 90° |
| 2026-04-24 13:29 | 55.91517 | 9.90017 | 27573 ft | 492 kts | 90° |
| 2026-04-24 13:29 | 55.91366 | 9.96070 | 26964 ft | 486 kts | 90° |
| 2026-04-24 13:29 | 55.91213 | 10.02063 | 26355 ft | 481 kts | 90° |
| 2026-04-24 13:30 | 55.91059 | 10.07993 | 25760 ft | 477 kts | 90° |
| 2026-04-24 13:30 | 55.90903 | 10.13892 | 25168 ft | 472 kts | 90° |
| 2026-04-24 13:30 | 55.90747 | 10.19709 | 24582 ft | 469 kts | 90° |
| 2026-04-24 13:30 | 55.90589 | 10.25493 | 23984 ft | 466 kts | 90° |
| 2026-04-24 13:31 | 55.90430 | 10.31250 | 23322 ft | 463 kts | 90° |
| 2026-04-24 13:31 | 55.90269 | 10.36965 | 22666 ft | 460 kts | 90° |
| 2026-04-24 13:31 | 55.90107 | 10.42628 | 22051 ft | 455 kts | 90° |
| 2026-04-24 13:31 | 55.89944 | 10.48223 | 21465 ft | 450 kts | 90° |
| 2026-04-24 13:32 | 55.89742 | 10.53769 | 20874 ft | 447 kts | 94° |
| 2026-04-24 13:32 | 55.89216 | 10.59205 | 20358 ft | 443 kts | 100° |
| 2026-04-24 13:32 | 55.88541 | 10.64538 | 19791 ft | 440 kts | 101° |
| 2026-04-24 13:32 | 55.87845 | 10.69827 | 19227 ft | 437 kts | 101° |
| 2026-04-24 13:33 | 55.87167 | 10.75087 | 18640 ft | 434 kts | 101° |
| 2026-04-24 13:33 | 55.86514 | 10.80317 | 18012 ft | 432 kts | 100° |
| 2026-04-24 13:33 | 55.85879 | 10.85518 | 17401 ft | 428 kts | 100° |
| 2026-04-24 13:33 | 55.85250 | 10.90673 | 16813 ft | 424 kts | 100° |
| 2026-04-24 13:34 | 55.84614 | 10.95766 | 16266 ft | 420 kts | 101° |
| 2026-04-24 13:34 | 55.83902 | 11.00774 | 15749 ft | 415 kts | 102° |
| 2026-04-24 13:34 | 55.83165 | 11.05653 | 15211 ft | 412 kts | 103° |
| 2026-04-24 13:34 | 55.82417 | 11.10551 | 14666 ft | 409 kts | 103° |
| 2026-04-24 13:35 | 55.81680 | 11.15410 | 14112 ft | 406 kts | 102° |
| 2026-04-24 13:35 | 55.80953 | 11.20244 | 13691 ft | 400 kts | 102° |
| 2026-04-24 13:35 | 55.80250 | 11.24936 | 13479 ft | 387 kts | 102° |
| 2026-04-24 13:35 | 55.79569 | 11.29496 | 13303 ft | 375 kts | 102° |
| 2026-04-24 13:36 | 55.78910 | 11.33913 | 13141 ft | 364 kts | 102° |
| 2026-04-24 13:36 | 55.78269 | 11.38187 | 12979 ft | 353 kts | 102° |
| 2026-04-24 13:36 | 55.77643 | 11.42341 | 12824 ft | 343 kts | 102° |
| 2026-04-24 13:36 | 55.77102 | 11.46417 | 12563 ft | 336 kts | 96° |
| 2026-04-24 13:37 | 55.76771 | 11.50486 | 12281 ft | 330 kts | 93° |
| 2026-04-24 13:37 | 55.76496 | 11.54523 | 11946 ft | 328 kts | 93° |
| 2026-04-24 13:37 | 55.76220 | 11.58528 | 11620 ft | 326 kts | 93° |
| 2026-04-24 13:37 | 55.75928 | 11.62512 | 11292 ft | 324 kts | 94° |
| 2026-04-24 13:38 | 55.75625 | 11.66467 | 10964 ft | 323 kts | 94° |
| 2026-04-24 13:38 | 55.75313 | 11.70401 | 10633 ft | 321 kts | 94° |
| 2026-04-24 13:38 | 55.75001 | 11.74274 | 10336 ft | 319 kts | 94° |
| 2026-04-24 13:38 | 55.74689 | 11.78121 | 10185 ft | 310 kts | 94° |
| 2026-04-24 13:39 | 55.74383 | 11.81869 | 10015 ft | 304 kts | 94° |
| 2026-04-24 13:39 | 55.74082 | 11.85564 | 9698 ft | 302 kts | 94° |
| 2026-04-24 13:39 | 55.73784 | 11.89246 | 9407 ft | 301 kts | 95° |
| 2026-04-24 13:39 | 55.73484 | 11.92910 | 9091 ft | 299 kts | 95° |
| 2026-04-24 13:40 | 55.73182 | 11.96583 | 8717 ft | 301 kts | 95° |
| 2026-04-24 13:40 | 55.72879 | 12.00221 | 8527 ft | 294 kts | 96° |
| 2026-04-24 13:40 | 55.72221 | 12.03604 | 8439 ft | 289 kts | 122° |
| 2026-04-24 13:40 | 55.70848 | 12.06073 | 8425 ft | 276 kts | 148° |
| 2026-04-24 13:41 | 55.69128 | 12.07297 | 8441 ft | 262 kts | 173° |
| 2026-04-24 13:41 | 55.67338 | 12.07277 | 8456 ft | 255 kts | 197° |
| 2026-04-24 13:41 | 55.65718 | 12.06136 | 8454 ft | 248 kts | 219° |
| 2026-04-24 13:41 | 55.64481 | 12.04103 | 8457 ft | 240 kts | 240° |
| 2026-04-24 13:42 | 55.63704 | 12.01538 | 8461 ft | 235 kts | 255° |
| 2026-04-24 13:42 | 55.63374 | 11.98751 | 8449 ft | 229 kts | 275° |
| 2026-04-24 13:42 | 55.63501 | 11.95975 | 8452 ft | 226 kts | 282° |
| 2026-04-24 13:42 | 55.63718 | 11.93220 | 8452 ft | 226 kts | 282° |
| 2026-04-24 13:43 | 55.63942 | 11.90468 | 8452 ft | 226 kts | 282° |
| 2026-04-24 13:43 | 55.64159 | 11.87751 | 8455 ft | 225 kts | 282° |
| 2026-04-24 13:43 | 55.64376 | 11.85013 | 8450 ft | 224 kts | 282° |
| 2026-04-24 13:43 | 55.64666 | 11.82317 | 8446 ft | 221 kts | 295° |
| 2026-04-24 13:44 | 55.65455 | 11.80056 | 8459 ft | 214 kts | 311° |
| 2026-04-24 13:44 | 55.66540 | 11.78274 | 8455 ft | 212 kts | 326° |
| 2026-04-24 13:44 | 55.67866 | 11.77128 | 8448 ft | 213 kts | 341° |
| 2026-04-24 13:44 | 55.69333 | 11.76764 | 8457 ft | 216 kts | 358° |
| 2026-04-24 13:45 | 55.70824 | 11.77274 | 8453 ft | 223 kts | 18° |
| 2026-04-24 13:45 | 55.72140 | 11.79074 | 8483 ft | 261 kts | 46° |
| 2026-04-24 13:45 | 55.72958 | 11.82069 | 8459 ft | 280 kts | 73° |
| 2026-04-24 13:45 | 55.72902 | 11.85574 | 8466 ft | 291 kts | 100° |
| 2026-04-24 13:46 | 55.72255 | 11.89002 | 8457 ft | 296 kts | 109° |
| 2026-04-24 13:46 | 55.71447 | 11.92369 | 8456 ft | 297 kts | 111° |
| 2026-04-24 13:46 | 55.70614 | 11.95719 | 8445 ft | 295 kts | 111° |
| 2026-04-24 13:46 | 55.70074 | 11.97902 | 8423 ft | 289 kts | 111° |
| 2026-04-24 13:47 | 55.69296 | 12.01090 | 8437 ft | 275 kts | 110° |
| 2026-04-24 13:47 | 55.68561 | 12.04145 | 8421 ft | 263 kts | 110° |
| 2026-04-24 13:47 | 55.67869 | 12.07057 | 8418 ft | 251 kts | 109° |
| 2026-04-24 13:47 | 55.67203 | 12.09875 | 8362 ft | 247 kts | 109° |
| 2026-04-24 13:48 | 55.66538 | 12.12706 | 8047 ft | 250 kts | 109° |
| 2026-04-24 13:48 | 55.65872 | 12.15542 | 7814 ft | 246 kts | 109° |
| 2026-04-24 13:48 | 55.65224 | 12.18292 | 7606 ft | 240 kts | 109° |
| 2026-04-24 13:48 | 55.64585 | 12.21009 | 7322 ft | 238 kts | 109° |
| 2026-04-24 13:49 | 55.63955 | 12.23691 | 7050 ft | 235 kts | 109° |
| 2026-04-24 13:49 | 55.63328 | 12.26359 | 6758 ft | 234 kts | 109° |
| 2026-04-24 13:49 | 55.62715 | 12.28955 | 6588 ft | 225 kts | 109° |
| 2026-04-24 13:49 | 55.62114 | 12.31499 | 6328 ft | 224 kts | 109° |
| 2026-04-24 13:50 | 55.61516 | 12.34029 | 6041 ft | 221 kts | 109° |
| 2026-04-24 13:50 | 55.60858 | 12.36472 | 5698 ft | 221 kts | 124° |
| 2026-04-24 13:50 | 55.59624 | 12.38036 | 5328 ft | 222 kts | 166° |
| 2026-04-24 13:50 | 55.58121 | 12.37992 | 4923 ft | 216 kts | 203° |
| 2026-04-24 13:51 | 55.56815 | 12.36823 | 4620 ft | 208 kts | 217° |
| 2026-04-24 13:51 | 55.55580 | 12.35479 | 4385 ft | 208 kts | 217° |
| 2026-04-24 13:51 | 55.54341 | 12.34135 | 4163 ft | 209 kts | 216° |
| 2026-04-24 13:51 | 55.53097 | 12.32795 | 3953 ft | 210 kts | 213° |
| 2026-04-24 13:52 | 55.51666 | 12.32230 | 3702 ft | 219 kts | 169° |
| 2026-04-24 13:52 | 55.50370 | 12.33522 | 3584 ft | 218 kts | 129° |
| 2026-04-24 13:52 | 55.49394 | 12.35545 | 3382 ft | 216 kts | 127° |
| 2026-04-24 13:52 | 55.48420 | 12.37553 | 3144 ft | 214 kts | 127° |
| 2026-04-24 13:53 | 55.47580 | 12.39655 | 2920 ft | 205 kts | 104° |
| 2026-04-24 13:53 | 55.47595 | 12.41979 | 2732 ft | 182 kts | 58° |
| 2026-04-24 13:53 | 55.48307 | 12.43670 | 2575 ft | 167 kts | 36° |
| 2026-04-24 13:53 | 55.49171 | 12.45005 | 2437 ft | 164 kts | 32° |
| 2026-04-24 13:54 | 55.50047 | 12.46309 | 2281 ft | 166 kts | 33° |
| 2026-04-24 13:54 | 55.50928 | 12.47613 | 2123 ft | 164 kts | 31° |
| 2026-04-24 13:54 | 55.51804 | 12.48892 | 1969 ft | 166 kts | 34° |
| 2026-04-24 13:54 | 55.52678 | 12.50232 | 1752 ft | 166 kts | 33° |
| 2026-04-24 13:55 | 55.53532 | 12.51555 | 1550 ft | 160 kts | 33° |
| 2026-04-24 13:55 | 55.54378 | 12.52864 | 1317 ft | 162 kts | 34° |
| 2026-04-24 13:55 | 55.55208 | 12.54149 | 1110 ft | 160 kts | 34° |
| 2026-04-24 13:55 | 55.56047 | 12.55447 | 911 ft | 160 kts | 34° |
| 2026-04-24 13:56 | 55.56885 | 12.56745 | 693 ft | 161 kts | 35° |
| 2026-04-24 13:56 | 55.57722 | 12.58019 | 451 ft | 151 kts | 34° |
| 2026-04-24 13:56 | 55.58467 | 12.59181 | 323 ft | 141 kts | 38° |
| 2026-04-24 13:56 | 55.59207 | 12.60339 | 96 ft | 139 kts | 37° |
| 2026-04-24 13:57 | 55.59892 | 12.61362 | 18 ft | 106 kts | 43° |
| 2026-04-24 13:57 | 55.60300 | 12.61997 | 20 ft | 64 kts | 40° |
| 2026-04-24 13:57 | 55.60457 | 12.62229 | 19 ft | 7 kts | 32° |
| 2026-04-24 13:57 | 55.60512 | 12.62278 | 20 ft | 14 kts | 22° |
| 2026-04-24 13:58 | 55.60596 | 12.62320 | 23 ft | 0 kts | 13° |
| 2026-04-24 13:58 | 55.60614 | 12.62328 | 24 ft | 10 kts | 13° |
| 2026-04-24 13:59 | 55.60745 | 12.62385 | 23 ft | 29 kts | 15° |
| 2026-04-24 13:59 | 55.60925 | 12.62604 | 18 ft | 32 kts | 43° |
| 2026-04-24 13:59 | 55.61090 | 12.62853 | 18 ft | 30 kts | 41° |
| 2026-04-24 13:59 | 55.61240 | 12.63093 | 21 ft | 28 kts | 42° |
| 2026-04-24 14:00 | 55.61375 | 12.63302 | 21 ft | 12 kts | 43° |
| 2026-04-24 14:00 | 55.61431 | 12.63392 | 20 ft | 11 kts | 41° |
| 2026-04-24 14:00 | 55.61491 | 12.63482 | 17 ft | 12 kts | 40° |
| 2026-04-24 14:00 | 55.61558 | 12.63584 | 16 ft | 13 kts | 40° |
| 2026-04-24 14:01 | 55.61625 | 12.63686 | 17 ft | 13 kts | 40° |
| 2026-04-24 14:01 | 55.61691 | 12.63787 | 18 ft | 12 kts | 40° |
| 2026-04-24 14:01 | 55.61756 | 12.63886 | 20 ft | 13 kts | 41° |
| 2026-04-24 14:01 | 55.61833 | 12.64009 | 20 ft | 17 kts | 43° |
| 2026-04-24 14:02 | 55.61936 | 12.64127 | 20 ft | 19 kts | 23° |
| 2026-04-24 14:02 | 55.62070 | 12.64236 | 19 ft | 23 kts | 27° |
| 2026-04-24 14:02 | 55.62121 | 12.64282 | 18 ft | 0 kts | 26° |
| 2026-04-24 14:03 | 55.62124 | 12.64284 | 18 ft | 3 kts | 26° |
| 2026-04-24 14:03 | 55.62206 | 12.64342 | 15 ft | 21 kts | 26° |
| 2026-04-24 14:03 | 55.62288 | 12.64552 | 18 ft | 21 kts | 66° |
| 2026-04-24 14:03 | 55.62332 | 12.64737 | 22 ft | 0 kts | 64° |
| 2026-04-24 14:04 | 55.62333 | 12.64740 | 22 ft | 2 kts | 63° |
| 2026-04-24 14:04 | 55.62355 | 12.64776 | 22 ft | 7 kts | 22° |
| 2026-04-24 14:05 | 55.62433 | 12.64777 | 20 ft | 15 kts | 357° |
| 2026-04-24 14:05 | 55.62531 | 12.64769 | 19 ft | 8 kts | 1° |
| 2026-04-24 14:05 | 55.62554 | 12.64819 | 20 ft | 4 kts | 75° |
| 2026-04-24 14:05 | 55.62555 | 12.64864 | 20 ft | 3 kts | 89° |
| 2026-04-24 14:06 | 55.62555 | 12.64879 | 20 ft | 1 kts | 91° |
| 2026-04-24 14:06 | 55.62555 | 12.64885 | 20 ft | 0 kts | 91° |
| 2026-04-24 14:06 | 55.62559 | 12.64899 | 20 ft | 0 kts | 64° |